createdAt,value
2023-02-09T00:00:05.667Z,-7.47
2023-02-09T00:01:05.634Z,-7.52
2023-02-09T00:02:05.716Z,-7.50
2023-02-09T00:03:05.617Z,-7.38
2023-02-09T00:04:05.621Z,-7.52
2023-02-09T00:05:05.596Z,-7.57
2023-02-09T00:06:05.584Z,-7.32
2023-02-09T00:07:05.575Z,-7.55
2023-02-09T00:08:05.679Z,-7.46
2023-02-09T00:09:05.555Z,-7.53
2023-02-09T00:10:05.559Z,-7.56
2023-02-09T00:11:05.534Z,-7.45
2023-02-09T00:12:05.520Z,-7.50
2023-02-09T00:13:05.514Z,-7.47
2023-02-09T00:14:05.509Z,-7.56
2023-02-09T00:15:05.499Z,-7.47
2023-02-09T00:16:05.555Z,-7.47
2023-02-09T00:17:05.470Z,-7.46
2023-02-09T00:18:05.466Z,-7.57
2023-02-09T00:19:05.461Z,-7.60
2023-02-09T00:20:05.449Z,-7.38
2023-02-09T00:21:05.436Z,-7.57
2023-02-09T00:22:05.431Z,-7.53
2023-02-09T00:23:05.424Z,-7.66
2023-02-09T00:24:05.417Z,-7.60
2023-02-09T00:25:05.399Z,-7.42
2023-02-09T00:26:05.374Z,-7.45
2023-02-09T00:27:05.384Z,-7.57
2023-02-09T00:28:05.388Z,-7.46
2023-02-09T00:29:05.346Z,-7.57
2023-02-09T00:30:05.334Z,-7.57
2023-02-09T00:31:05.395Z,-7.60
2023-02-09T00:32:05.427Z,-7.57
2023-02-09T00:33:05.318Z,-7.38
2023-02-09T00:34:05.313Z,-7.70
2023-02-09T00:35:05.281Z,-7.66
2023-02-09T00:36:05.284Z,-7.62
2023-02-09T00:37:05.267Z,-7.56
2023-02-09T00:38:05.261Z,-7.59
2023-02-09T00:39:05.254Z,-7.67
2023-02-09T00:40:05.257Z,-7.70
2023-02-09T00:41:05.219Z,-7.59
2023-02-09T00:42:05.231Z,-7.57
2023-02-09T00:43:05.197Z,-7.55
2023-02-09T00:44:05.185Z,-7.46
2023-02-09T00:45:05.177Z,-7.62
2023-02-09T00:46:05.318Z,-7.68
2023-02-09T00:47:05.192Z,-7.64
2023-02-09T00:48:05.148Z,-7.47
2023-02-09T00:49:05.153Z,-7.60
2023-02-09T00:50:05.243Z,-7.67
2023-02-09T00:51:05.113Z,-7.64
2023-02-09T00:52:05.122Z,-7.56
2023-02-09T00:53:05.108Z,-7.64
2023-02-09T00:54:05.107Z,-7.56
2023-02-09T00:55:05.078Z,-7.59
2023-02-09T00:56:05.085Z,-7.76
2023-02-09T00:57:05.107Z,-7.87
2023-02-09T00:58:05.060Z,-7.60
2023-02-09T00:59:05.044Z,-7.59
2023-02-09T01:00:05.023Z,-7.71
2023-02-09T01:01:05.102Z,-7.68
2023-02-09T01:02:05.009Z,-7.67
2023-02-09T01:03:04.990Z,-7.66
2023-02-09T01:04:05.103Z,-7.71
2023-02-09T01:05:05.024Z,-7.62
2023-02-09T01:06:04.956Z,-7.64
2023-02-09T01:07:04.946Z,-7.76
2023-02-09T01:08:04.937Z,-7.66
2023-02-09T01:09:04.926Z,-7.66
2023-02-09T01:10:04.953Z,-7.71
2023-02-09T01:11:04.922Z,-7.62
2023-02-09T01:12:04.911Z,-7.67
2023-02-09T01:13:04.886Z,-7.73
2023-02-09T01:14:04.875Z,-7.71
2023-02-09T01:15:04.866Z,-7.80
2023-02-09T01:16:04.877Z,-7.80
2023-02-09T01:17:05.053Z,-7.73
2023-02-09T01:18:04.827Z,-7.92
2023-02-09T01:19:04.824Z,-7.78
2023-02-09T01:20:04.807Z,-7.74
2023-02-09T01:21:04.887Z,-7.85
2023-02-09T01:22:04.806Z,-7.82
2023-02-09T01:23:04.779Z,-7.73
2023-02-09T01:24:04.767Z,-7.84
2023-02-09T01:25:04.760Z,-7.84
2023-02-09T01:26:04.749Z,-7.78
2023-02-09T01:27:04.759Z,-7.82
2023-02-09T01:28:04.794Z,-7.80
2023-02-09T01:29:04.731Z,-7.70
2023-02-09T01:30:04.710Z,-7.76
2023-02-09T01:31:04.849Z,-7.68
2023-02-09T01:32:04.777Z,-7.91
2023-02-09T01:33:04.689Z,-7.77
2023-02-09T01:34:04.677Z,-7.74
2023-02-09T01:35:04.653Z,-7.76
2023-02-09T01:36:04.643Z,-7.67
2023-02-09T01:37:04.635Z,-7.76
2023-02-09T01:38:04.622Z,-7.89
2023-02-09T01:39:04.653Z,-8.04
2023-02-09T01:40:04.615Z,-7.85
2023-02-09T01:41:04.591Z,-7.95
2023-02-09T01:42:04.579Z,-7.88
2023-02-09T01:43:04.593Z,-7.74
2023-02-09T01:44:04.580Z,-7.92
2023-02-09T01:45:04.565Z,-7.95
2023-02-09T01:46:04.639Z,-7.89
2023-02-09T01:47:04.532Z,-7.94
2023-02-09T01:48:04.518Z,-8.04
2023-02-09T01:49:04.526Z,-7.84
2023-02-09T01:50:04.505Z,-8.04
2023-02-09T01:51:04.531Z,-7.92
2023-02-09T01:52:04.478Z,-7.87
2023-02-09T01:53:04.472Z,-7.76
2023-02-09T01:54:04.457Z,-7.89
2023-02-09T01:55:04.462Z,-7.91
2023-02-09T01:56:04.451Z,-7.85
2023-02-09T01:57:04.440Z,-8.04
2023-02-09T01:58:04.420Z,-8.06
2023-02-09T01:59:04.409Z,-7.89
2023-02-09T02:00:04.412Z,-7.96
2023-02-09T02:01:04.472Z,-7.95
2023-02-09T02:02:04.378Z,-8.04
2023-02-09T02:03:04.416Z,-8.07
2023-02-09T02:04:04.358Z,-7.95
2023-02-09T02:05:04.350Z,-8.08
2023-02-09T02:06:04.350Z,-8.06
2023-02-09T02:07:04.330Z,-8.03
2023-02-09T02:08:04.314Z,-8.13
2023-02-09T02:09:04.329Z,-7.92
2023-02-09T02:10:04.296Z,-8.07
2023-02-09T02:11:04.298Z,-8.07
2023-02-09T02:12:04.278Z,-8.11
2023-02-09T02:13:04.262Z,-8.21
2023-02-09T02:14:04.248Z,-8.03
2023-02-09T02:15:04.250Z,-7.96
2023-02-09T02:16:04.464Z,-8.08
2023-02-09T02:17:04.221Z,-8.11
2023-02-09T02:18:04.217Z,-8.10
2023-02-09T02:19:04.197Z,-8.21
2023-02-09T02:20:04.183Z,-8.03
2023-02-09T02:21:04.188Z,-8.18
2023-02-09T02:22:04.163Z,-8.17
2023-02-09T02:23:04.165Z,-8.13
2023-02-09T02:24:04.140Z,-8.21
2023-02-09T02:25:04.133Z,-8.10
2023-02-09T02:26:06.152Z,-8.24
2023-02-09T02:27:04.140Z,-8.10
2023-02-09T02:28:04.208Z,-8.14
2023-02-09T02:29:04.088Z,-8.16
2023-02-09T02:30:04.089Z,-8.21
2023-02-09T02:31:04.224Z,-8.11
2023-02-09T02:32:04.092Z,-8.16
2023-02-09T02:33:04.070Z,-8.16
2023-02-09T02:34:04.048Z,-8.29
2023-02-09T02:35:04.027Z,-8.22
2023-02-09T02:36:04.017Z,-8.24
2023-02-09T02:37:04.007Z,-8.28
2023-02-09T02:38:03.999Z,-8.24
2023-02-09T02:39:04.000Z,-8.17
2023-02-09T02:40:04.027Z,-8.14
2023-02-09T02:41:04.002Z,-8.22
2023-02-09T02:42:03.955Z,-8.16
2023-02-09T02:43:03.943Z,-8.17
2023-02-09T02:44:03.940Z,-8.13
2023-02-09T02:45:03.945Z,-8.34
2023-02-09T02:46:03.943Z,-8.13
2023-02-09T02:47:03.915Z,-8.25
2023-02-09T02:48:03.922Z,-8.27
2023-02-09T02:49:03.888Z,-8.29
2023-02-09T02:50:03.878Z,-8.22
2023-02-09T02:51:03.913Z,-8.37
2023-02-09T02:52:03.861Z,-8.14
2023-02-09T02:53:03.854Z,-8.27
2023-02-09T02:54:03.842Z,-8.14
2023-02-09T02:55:03.824Z,-8.34
2023-02-09T02:56:03.821Z,-8.14
2023-02-09T02:57:03.834Z,-8.35
2023-02-09T02:58:03.795Z,-8.31
2023-02-09T02:59:03.787Z,-8.08
2023-02-09T03:00:03.776Z,-8.35
2023-02-09T03:01:03.769Z,-8.22
2023-02-09T03:02:03.754Z,-8.49
2023-02-09T03:03:03.768Z,-8.37
2023-02-09T03:04:03.768Z,-8.24
2023-02-09T03:05:03.786Z,-8.58
2023-02-09T03:06:03.732Z,-8.47
2023-02-09T03:07:03.706Z,-8.39
2023-02-09T03:08:03.726Z,-8.28
2023-02-09T03:09:03.717Z,-8.32
2023-02-09T03:10:03.746Z,-8.27
2023-02-09T03:11:03.675Z,-8.32
2023-02-09T03:12:03.685Z,-8.32
2023-02-09T03:13:03.641Z,-8.32
2023-02-09T03:14:03.649Z,-8.32
2023-02-09T03:15:03.651Z,-8.34
2023-02-09T03:16:03.658Z,-8.29
2023-02-09T03:17:03.605Z,-8.37
2023-02-09T03:18:03.592Z,-8.34
2023-02-09T03:19:03.579Z,-8.37
2023-02-09T03:20:03.609Z,-8.43
2023-02-09T03:21:03.561Z,-8.53
2023-02-09T03:22:03.549Z,-8.29
2023-02-09T03:23:03.536Z,-8.35
2023-02-09T03:24:03.543Z,-8.34
2023-02-09T03:25:03.540Z,-8.24
2023-02-09T03:26:03.529Z,-8.40
2023-02-09T03:27:03.494Z,-8.24
2023-02-09T03:28:03.517Z,-8.37
2023-02-09T03:29:03.472Z,-8.25
2023-02-09T03:30:03.467Z,-8.43
2023-02-09T03:31:03.591Z,-8.45
2023-02-09T03:32:03.466Z,-8.34
2023-02-09T03:33:03.461Z,-8.49
2023-02-09T03:34:03.430Z,-8.45
2023-02-09T03:35:03.411Z,-8.47
2023-02-09T03:36:03.431Z,-8.39
2023-02-09T03:37:03.404Z,-8.61
2023-02-09T03:38:03.399Z,-8.50
2023-02-09T03:39:03.379Z,-8.42
2023-02-09T03:40:03.362Z,-8.37
2023-02-09T03:41:03.360Z,-8.49
2023-02-09T03:42:03.358Z,-8.46
2023-02-09T03:43:03.342Z,-8.45
2023-02-09T03:44:03.334Z,-8.42
2023-02-09T03:45:03.312Z,-8.45
2023-02-09T03:46:03.302Z,-8.35
2023-02-09T03:47:03.289Z,-8.58
2023-02-09T03:48:03.298Z,-8.52
2023-02-09T03:49:03.273Z,-8.35
2023-02-09T03:50:03.274Z,-8.49
2023-02-09T03:51:03.244Z,-8.47
2023-02-09T03:52:03.264Z,-8.47
2023-02-09T03:53:03.225Z,-8.40
2023-02-09T03:54:03.232Z,-8.39
2023-02-09T03:55:03.236Z,-8.55
2023-02-09T03:56:03.215Z,-8.61
2023-02-09T03:57:03.186Z,-8.63
2023-02-09T03:58:03.177Z,-8.63
2023-02-09T03:59:03.163Z,-8.56
2023-02-09T04:00:03.152Z,-8.53
2023-02-09T04:01:03.209Z,-8.58
2023-02-09T04:02:03.241Z,-8.50
2023-02-09T04:03:03.124Z,-8.52
2023-02-09T04:04:03.120Z,-8.55
2023-02-09T04:05:05.462Z,-8.53
2023-02-09T04:06:03.087Z,-8.60
2023-02-09T04:07:03.184Z,-8.55
2023-02-09T04:08:03.102Z,-8.52
2023-02-09T04:09:03.081Z,-8.61
2023-02-09T04:10:03.062Z,-8.66
2023-02-09T04:11:03.069Z,-8.60
2023-02-09T04:12:03.038Z,-8.60
2023-02-09T04:13:03.023Z,-8.63
2023-02-09T04:14:03.032Z,-8.61
2023-02-09T04:15:03.004Z,-8.58
2023-02-09T04:16:03.083Z,-8.58
2023-02-09T04:17:02.981Z,-8.56
2023-02-09T04:18:02.964Z,-8.50
2023-02-09T04:19:02.951Z,-8.64
2023-02-09T04:20:02.960Z,-8.58
2023-02-09T04:21:02.929Z,-8.58
2023-02-09T04:22:02.933Z,-8.60
2023-02-09T04:23:02.913Z,-8.66
2023-02-09T04:24:02.924Z,-8.64
2023-02-09T04:25:02.890Z,-8.56
2023-02-09T04:26:02.895Z,-8.61
2023-02-09T04:27:02.882Z,-8.50
2023-02-09T04:28:02.930Z,-8.60
2023-02-09T04:29:02.882Z,-8.64
2023-02-09T04:30:02.903Z,-8.64
2023-02-09T04:31:02.963Z,-8.55
2023-02-09T04:32:02.924Z,-8.68
2023-02-09T04:33:02.808Z,-8.61
2023-02-09T04:34:02.806Z,-8.60
2023-02-09T04:35:02.794Z,-8.70
2023-02-09T04:36:02.784Z,-8.68
2023-02-09T04:37:02.780Z,-8.60
2023-02-09T04:38:02.786Z,-8.64
2023-02-09T04:39:02.791Z,-8.78
2023-02-09T04:40:02.764Z,-8.70
2023-02-09T04:41:02.735Z,-8.74
2023-02-09T04:42:02.735Z,-8.70
2023-02-09T04:43:02.717Z,-8.68
2023-02-09T04:44:02.711Z,-8.53
2023-02-09T04:45:02.686Z,-8.68
2023-02-09T04:46:02.713Z,-8.64
2023-02-09T04:47:02.668Z,-8.63
2023-02-09T04:48:02.667Z,-8.78
2023-02-09T04:49:02.643Z,-8.70
2023-02-09T04:50:02.670Z,-8.68
2023-02-09T04:51:02.628Z,-8.68
2023-02-09T04:52:02.620Z,-8.58
2023-02-09T04:53:02.604Z,-8.71
2023-02-09T04:54:02.599Z,-8.71
2023-02-09T04:55:02.588Z,-8.68
2023-02-09T04:56:02.613Z,-8.76
2023-02-09T04:57:02.563Z,-8.67
2023-02-09T04:58:02.559Z,-8.56
2023-02-09T04:59:02.556Z,-8.60
2023-02-09T05:00:02.582Z,-8.64
2023-02-09T05:01:02.570Z,-8.67
2023-02-09T05:02:02.528Z,-8.52
2023-02-09T05:03:02.500Z,-8.53
2023-02-09T05:04:02.508Z,-8.50
2023-02-09T05:05:02.491Z,-8.61
2023-02-09T05:06:02.473Z,-8.63
2023-02-09T05:07:02.458Z,-8.64
2023-02-09T05:08:02.480Z,-8.64
2023-02-09T05:09:02.438Z,-8.58
2023-02-09T05:10:02.431Z,-8.60
2023-02-09T05:11:02.420Z,-8.63
2023-02-09T05:12:02.427Z,-8.60
2023-02-09T05:13:02.398Z,-8.63
2023-02-09T05:14:02.411Z,-8.61
2023-02-09T05:15:02.378Z,-8.55
2023-02-09T05:16:02.411Z,-8.70
2023-02-09T05:17:02.472Z,-8.74
2023-02-09T05:18:02.362Z,-8.66
2023-02-09T05:19:02.341Z,-8.84
2023-02-09T05:20:02.349Z,-8.85
2023-02-09T05:21:02.324Z,-8.86
2023-02-09T05:22:02.327Z,-8.86
2023-02-09T05:23:02.293Z,-8.81
2023-02-09T05:24:02.285Z,-8.84
2023-02-09T05:25:02.275Z,-8.86
2023-02-09T05:26:02.301Z,-8.70
2023-02-09T05:27:02.262Z,-8.64
2023-02-09T05:28:02.306Z,-8.71
2023-02-09T05:29:02.231Z,-8.81
2023-02-09T05:30:02.239Z,-8.82
2023-02-09T05:31:02.273Z,-8.73
2023-02-09T05:32:02.282Z,-8.79
2023-02-09T05:33:02.190Z,-8.73
2023-02-09T05:34:02.187Z,-8.78
2023-02-09T05:35:02.168Z,-8.70
2023-02-09T05:36:02.173Z,-8.76
2023-02-09T05:37:02.149Z,-8.70
2023-02-09T05:38:02.137Z,-8.71
2023-02-09T05:39:02.145Z,-8.63
2023-02-09T05:40:02.168Z,-8.78
2023-02-09T05:41:02.136Z,-8.73
2023-02-09T05:42:02.120Z,-8.84
2023-02-09T05:43:02.089Z,-8.82
2023-02-09T05:44:02.124Z,-8.74
2023-02-09T05:45:02.072Z,-8.81
2023-02-09T05:46:02.177Z,-8.76
2023-02-09T05:47:02.044Z,-8.67
2023-02-09T05:48:02.061Z,-8.64
2023-02-09T05:49:02.025Z,-8.71
2023-02-09T05:50:02.045Z,-8.79
2023-02-09T05:51:02.009Z,-8.71
2023-02-09T05:52:02.016Z,-8.79
2023-02-09T05:53:01.988Z,-8.71
2023-02-09T05:54:01.973Z,-8.82
2023-02-09T05:55:01.976Z,-8.91
2023-02-09T05:56:01.961Z,-8.71
2023-02-09T05:57:01.957Z,-8.82
2023-02-09T05:58:01.949Z,-8.82
2023-02-09T05:59:04.167Z,-8.71
2023-02-09T06:00:01.933Z,-8.74
2023-02-09T06:01:01.909Z,-8.67
2023-02-09T06:02:01.911Z,-8.70
2023-02-09T06:03:01.881Z,-8.76
2023-02-09T06:04:01.869Z,-8.71
2023-02-09T06:05:01.873Z,-8.79
2023-02-09T06:06:01.848Z,-8.88
2023-02-09T06:07:01.837Z,-8.96
2023-02-09T06:08:01.841Z,-8.91
2023-02-09T06:09:01.813Z,-9.09
2023-02-09T06:10:01.850Z,-8.97
2023-02-09T06:11:01.818Z,-9.10
2023-02-09T06:12:01.791Z,-9.02
2023-02-09T06:13:01.773Z,-9.09
2023-02-09T06:14:01.763Z,-9.06
2023-02-09T06:15:01.750Z,-9.05
2023-02-09T06:16:01.799Z,-9.03
2023-02-09T06:17:01.742Z,-8.92
2023-02-09T06:18:01.723Z,-9.06
2023-02-09T06:19:01.708Z,-9.09
2023-02-09T06:20:01.834Z,-9.06
2023-02-09T06:21:01.686Z,-9.00
2023-02-09T06:22:01.708Z,-8.99
2023-02-09T06:23:01.666Z,-9.07
2023-02-09T06:24:01.659Z,-9.26
2023-02-09T06:25:01.644Z,-9.43
2023-02-09T06:26:01.665Z,-9.30
2023-02-09T06:27:01.626Z,-9.26
2023-02-09T06:28:01.640Z,-9.17
2023-02-09T06:29:01.614Z,-9.17
2023-02-09T06:30:01.596Z,-9.20
2023-02-09T06:31:01.682Z,-9.14
2023-02-09T06:32:01.786Z,-9.07
2023-02-09T06:33:01.597Z,-9.06
2023-02-09T06:34:01.572Z,-9.18
2023-02-09T06:35:01.572Z,-9.21
2023-02-09T06:36:01.591Z,-9.14
2023-02-09T06:37:01.570Z,-9.23
2023-02-09T06:38:01.559Z,-8.97
2023-02-09T06:39:01.542Z,-8.89
2023-02-09T06:40:01.542Z,-8.99
2023-02-09T06:41:01.498Z,-8.94
2023-02-09T06:42:01.479Z,-9.00
2023-02-09T06:43:01.468Z,-8.91
2023-02-09T06:44:01.471Z,-9.00
2023-02-09T06:45:01.458Z,-8.94
2023-02-09T06:46:01.485Z,-9.00
2023-02-09T06:47:01.441Z,-8.79
2023-02-09T06:48:01.434Z,-8.86
2023-02-09T06:49:01.404Z,-8.78
2023-02-09T06:50:01.401Z,-8.84
2023-02-09T06:51:01.397Z,-8.71
2023-02-09T06:52:01.383Z,-8.84
2023-02-09T06:53:01.363Z,-8.78
2023-02-09T06:54:01.350Z,-8.78
2023-02-09T06:55:01.343Z,-8.67
2023-02-09T06:56:01.351Z,-8.53
2023-02-09T06:57:01.322Z,-8.67
2023-02-09T06:58:01.331Z,-8.73
2023-02-09T06:59:01.303Z,-8.70
2023-02-09T07:00:01.292Z,-8.79
2023-02-09T07:01:01.302Z,-8.84
2023-02-09T07:02:01.356Z,-8.78
2023-02-09T07:03:01.418Z,-8.76
2023-02-09T07:04:01.271Z,-8.85
2023-02-09T07:05:01.251Z,-8.73
2023-02-09T07:06:01.245Z,-8.79
2023-02-09T07:07:01.234Z,-8.91
2023-02-09T07:08:01.210Z,-8.84
2023-02-09T07:09:01.197Z,-8.79
2023-02-09T07:10:01.223Z,-8.79
2023-02-09T07:11:01.178Z,-8.73
2023-02-09T07:12:01.173Z,-8.64
2023-02-09T07:13:01.165Z,-8.56
2023-02-09T07:14:01.149Z,-8.64
2023-02-09T07:15:01.177Z,-8.53
2023-02-09T07:16:01.165Z,-8.50
2023-02-09T07:17:01.124Z,-8.49
2023-02-09T07:18:01.119Z,-8.55
2023-02-09T07:19:01.115Z,-8.45
2023-02-09T07:20:01.104Z,-8.45
2023-02-09T07:21:01.084Z,-8.45
2023-02-09T07:22:01.077Z,-8.46
2023-02-09T07:23:01.052Z,-8.53
2023-02-09T07:24:01.050Z,-8.40
2023-02-09T07:25:01.044Z,-8.45
2023-02-09T07:26:01.024Z,-8.39
2023-02-09T07:27:01.025Z,-8.29
2023-02-09T07:28:01.072Z,-8.37
2023-02-09T07:29:01.001Z,-8.34
2023-02-09T07:30:01.438Z,-8.27
2023-02-09T07:31:01.091Z,-8.40
2023-02-09T07:32:01.038Z,-8.10
2023-02-09T07:33:00.948Z,-8.13
2023-02-09T07:34:00.967Z,-8.14
2023-02-09T07:35:00.943Z,-8.13
2023-02-09T07:36:00.949Z,-8.13
2023-02-09T07:37:00.914Z,-8.31
2023-02-09T07:38:00.902Z,-8.27
2023-02-09T07:39:00.893Z,-8.27
2023-02-09T07:40:00.892Z,-8.24
2023-02-09T07:41:00.864Z,-8.17
2023-02-09T07:42:00.868Z,-7.98
2023-02-09T07:43:00.846Z,-7.91
2023-02-09T07:44:00.831Z,-8.06
2023-02-09T07:45:00.834Z,-7.94
2023-02-09T07:46:00.846Z,-8.13
2023-02-09T07:47:00.829Z,-8.22
2023-02-09T07:48:00.788Z,-8.10
2023-02-09T07:49:01.524Z,-8.08
2023-02-09T07:50:00.801Z,-8.18
2023-02-09T07:51:00.839Z,-8.13
2023-02-09T07:52:00.775Z,-8.11
2023-02-09T07:53:00.739Z,-8.25
2023-02-09T07:54:00.724Z,-8.21
2023-02-09T07:55:00.729Z,-8.07
2023-02-09T07:56:00.711Z,-8.13
2023-02-09T07:57:00.709Z,-8.03
2023-02-09T07:58:00.711Z,-8.17
2023-02-09T07:59:00.675Z,-8.13
2023-02-09T08:00:00.666Z,-8.06
2023-02-09T08:01:00.670Z,-8.13
2023-02-09T08:02:00.712Z,-8.16
2023-02-09T08:03:00.646Z,-8.11
2023-02-09T08:04:00.644Z,-8.17
2023-02-09T08:05:00.716Z,-8.06
2023-02-09T08:06:00.601Z,-8.11
2023-02-09T08:07:00.611Z,-8.28
2023-02-09T08:08:00.616Z,-8.35
2023-02-09T08:09:00.572Z,-8.50
2023-02-09T08:10:00.568Z,-8.55
2023-02-09T08:11:00.561Z,-8.60
2023-02-09T08:12:00.641Z,-8.64
2023-02-09T08:13:00.635Z,-8.79
2023-02-09T08:14:00.529Z,-8.78
2023-02-09T08:15:00.510Z,-8.76
2023-02-09T08:16:00.571Z,-8.84
2023-02-09T08:17:00.498Z,-8.81
2023-02-09T08:18:00.475Z,-8.73
2023-02-09T08:19:00.478Z,-8.66
2023-02-09T08:20:00.466Z,-8.67
2023-02-09T08:21:00.447Z,-8.74
2023-02-09T08:22:00.445Z,-8.60
2023-02-09T08:23:00.431Z,-8.28
2023-02-09T08:24:00.434Z,-7.56
2023-02-09T08:25:00.445Z,-6.75
2023-02-09T08:26:00.392Z,-5.92
2023-02-09T08:27:00.389Z,-5.31
2023-02-09T08:28:00.405Z,-4.85
2023-02-09T08:29:00.449Z,-4.62
2023-02-09T08:30:00.368Z,-4.45
2023-02-09T08:31:00.460Z,-4.12
2023-02-09T08:32:00.439Z,-3.74
2023-02-09T08:33:00.322Z,-3.30
2023-02-09T08:34:00.325Z,-3.02
2023-02-09T08:35:00.309Z,-2.95
2023-02-09T08:36:00.296Z,-3.01
2023-02-09T08:37:00.298Z,-3.00
2023-02-09T08:38:00.270Z,-2.87
2023-02-09T08:39:00.267Z,-2.77
2023-02-09T08:40:00.271Z,-2.83
2023-02-09T08:41:00.238Z,-2.55
2023-02-09T08:42:00.334Z,-2.35
2023-02-09T08:43:00.220Z,-2.56
2023-02-09T08:44:00.207Z,-2.47
2023-02-09T08:45:00.223Z,-2.41
2023-02-09T08:46:00.393Z,-2.07
2023-02-09T08:47:00.399Z,-2.25
2023-02-09T08:48:00.175Z,-2.71
2023-02-09T08:49:00.163Z,-2.86
2023-02-09T08:50:00.169Z,-2.79
2023-02-09T08:51:00.138Z,-2.72
2023-02-09T08:52:00.141Z,-2.58
2023-02-09T08:53:00.156Z,-2.40
2023-02-09T08:54:00.137Z,-2.43
2023-02-09T08:55:00.153Z,-2.66
2023-02-09T08:56:00.139Z,-2.53
2023-02-09T08:57:00.113Z,-2.38
2023-02-09T08:58:00.103Z,-2.50
2023-02-09T08:59:00.055Z,-2.25
2023-02-09T09:00:00.055Z,-2.21
2023-02-09T09:01:00.168Z,-2.19
2023-02-09T09:02:00.033Z,-2.44
2023-02-09T09:03:00.028Z,-2.61
2023-02-09T09:04:00.121Z,-2.44
2023-02-09T09:04:59.999Z,-2.50
2023-02-09T09:05:59.984Z,-2.50
2023-02-09T09:06:59.969Z,-2.50
2023-02-09T09:07:59.952Z,-2.46
2023-02-09T09:09:00.040Z,-2.50
2023-02-09T09:09:59.961Z,-2.06
2023-02-09T09:10:59.922Z,-1.86
2023-02-09T09:11:59.928Z,-1.82
2023-02-09T09:12:59.905Z,-1.70
2023-02-09T09:13:59.907Z,-1.33
2023-02-09T09:14:59.901Z,-1.41
2023-02-09T09:15:59.897Z,-1.33
2023-02-09T09:16:59.965Z,-1.80
2023-02-09T09:17:59.846Z,-1.57
2023-02-09T09:18:59.853Z,-1.53
2023-02-09T09:19:59.826Z,-1.13
2023-02-09T09:20:59.827Z,-0.63
2023-02-09T09:21:59.829Z,-0.78
2023-02-09T09:22:59.797Z,-0.70
2023-02-09T09:23:59.785Z,-0.81
2023-02-09T09:24:59.780Z,-0.81
2023-02-09T09:25:59.778Z,-0.60
2023-02-09T09:26:59.757Z,-0.39
2023-02-09T09:27:59.793Z,-0.80
2023-02-09T09:28:59.740Z,-0.62
2023-02-09T09:29:59.724Z,-0.39
2023-02-09T09:30:59.854Z,-0.59
2023-02-09T09:31:59.777Z,-0.30
2023-02-09T09:32:59.723Z,-0.26
2023-02-09T09:33:59.677Z,-0.42
2023-02-09T09:34:59.684Z,-0.37
2023-02-09T09:35:59.677Z,-0.37
2023-02-09T09:36:59.649Z,-0.26
2023-02-09T09:37:59.637Z,-0.16
2023-02-09T09:38:59.637Z,-0.55
2023-02-09T09:39:59.613Z,-0.35
2023-02-09T09:40:59.625Z,-0.19
2023-02-09T09:41:59.640Z,-0.30
2023-02-09T09:42:59.599Z,-0.20
2023-02-09T09:43:59.593Z,0.05
2023-02-09T09:44:59.566Z,0.10
2023-02-09T09:45:59.573Z,0.05
2023-02-09T09:46:59.547Z,0.12
2023-02-09T09:47:59.540Z,0.10
2023-02-09T09:48:59.526Z,0.35
2023-02-09T09:49:59.511Z,-0.02
2023-02-09T09:50:59.516Z,-0.08
2023-02-09T09:51:59.490Z,-0.02
2023-02-09T09:52:59.484Z,-0.05
2023-02-09T09:53:59.480Z,-0.05
2023-02-09T09:54:59.457Z,0.10
2023-02-09T09:55:59.469Z,-0.13
2023-02-09T09:56:59.431Z,-0.06
2023-02-09T09:57:59.423Z,-0.02
2023-02-09T09:58:59.437Z,0.05
2023-02-09T09:59:59.447Z,0.05
2023-02-09T10:00:59.438Z,-0.03
2023-02-09T10:01:59.380Z,0.17
2023-02-09T10:02:59.370Z,0.19
2023-02-09T10:03:59.371Z,-0.02
2023-02-09T10:04:59.436Z,0.15
2023-02-09T10:05:59.346Z,0.49
2023-02-09T10:06:59.322Z,-0.13
2023-02-09T10:07:59.317Z,0.12
2023-02-09T10:08:59.312Z,-0.20
2023-02-09T10:09:59.293Z,0.44
2023-02-09T10:10:59.288Z,0.02
2023-02-09T10:11:59.273Z,0.12
2023-02-09T10:12:59.258Z,0.25
2023-02-09T10:13:59.253Z,0.37
2023-02-09T10:14:59.254Z,0.22
2023-02-09T10:15:59.257Z,0.41
2023-02-09T10:16:59.380Z,0.84
2023-02-09T10:17:59.219Z,0.99
2023-02-09T10:18:59.194Z,0.68
2023-02-09T10:19:59.188Z,0.45
2023-02-09T10:20:59.184Z,0.33
2023-02-09T10:21:59.182Z,0.05
2023-02-09T10:22:59.155Z,0.15
2023-02-09T10:23:59.195Z,0.20
2023-02-09T10:24:59.145Z,0.07
2023-02-09T10:25:59.128Z,0.64
2023-02-09T10:26:59.124Z,0.53
2023-02-09T10:27:59.108Z,0.57
2023-02-09T10:28:59.091Z,0.15
2023-02-09T10:29:59.088Z,0.10
2023-02-09T10:30:59.198Z,0.57
2023-02-09T10:31:59.145Z,0.75
2023-02-09T10:32:59.063Z,0.62
2023-02-09T10:33:59.062Z,0.60
2023-02-09T10:34:59.044Z,0.67
2023-02-09T10:35:59.017Z,0.89
2023-02-09T10:36:59.001Z,0.71
2023-02-09T10:37:58.998Z,0.77
2023-02-09T10:38:58.996Z,0.92
2023-02-09T10:39:58.986Z,0.62
2023-02-09T10:40:58.958Z,0.43
2023-02-09T10:41:58.957Z,0.43
2023-02-09T10:42:58.939Z,0.44
2023-02-09T10:43:58.932Z,0.38
2023-02-09T10:44:58.933Z,0.60
2023-02-09T10:45:58.950Z,0.59
2023-02-09T10:46:58.895Z,0.48
2023-02-09T10:47:58.912Z,0.34
2023-02-09T10:48:58.876Z,0.38
2023-02-09T10:49:58.868Z,0.20
2023-02-09T10:50:58.865Z,0.10
2023-02-09T10:51:58.845Z,0.22
2023-02-09T10:52:58.834Z,0.44
2023-02-09T10:53:58.822Z,0.45
2023-02-09T10:54:58.812Z,0.59
2023-02-09T10:55:58.824Z,0.80
2023-02-09T10:57:00.022Z,0.45
2023-02-09T10:57:58.782Z,0.34
2023-02-09T10:58:58.768Z,0.17
2023-02-09T10:59:58.761Z,0.19
2023-02-09T11:00:58.762Z,0.26
2023-02-09T11:01:58.741Z,0.72
2023-02-09T11:02:58.731Z,0.51
2023-02-09T11:03:58.785Z,0.23
2023-02-09T11:04:58.710Z,0.44
2023-02-09T11:05:58.695Z,0.82
2023-02-09T11:06:58.707Z,1.14
2023-02-09T11:07:58.686Z,1.21
2023-02-09T11:08:58.677Z,1.38
2023-02-09T11:09:58.662Z,1.43
2023-02-09T11:10:58.648Z,1.38
2023-02-09T11:11:58.635Z,1.14
2023-02-09T11:12:58.749Z,1.17
2023-02-09T11:13:58.623Z,1.28
2023-02-09T11:14:58.612Z,1.74
2023-02-09T11:15:58.674Z,2.02
2023-02-09T11:16:58.593Z,2.14
2023-02-09T11:17:58.577Z,1.70
2023-02-09T11:18:58.594Z,1.42
2023-02-09T11:19:58.579Z,1.16
2023-02-09T11:20:58.541Z,0.88
2023-02-09T11:21:58.530Z,1.07
2023-02-09T11:22:58.522Z,0.86
2023-02-09T11:23:58.513Z,0.49
2023-02-09T11:24:58.516Z,0.52
2023-02-09T11:25:58.500Z,0.64
2023-02-09T11:26:58.522Z,1.21
2023-02-09T11:27:58.518Z,1.53
2023-02-09T11:28:58.460Z,1.28
2023-02-09T11:29:58.445Z,1.10
2023-02-09T11:30:58.623Z,0.92
2023-02-09T11:31:58.527Z,0.45
2023-02-09T11:32:58.426Z,0.56
2023-02-09T11:33:58.425Z,0.72
2023-02-09T11:34:58.394Z,0.89
2023-02-09T11:35:58.399Z,0.56
2023-02-09T11:36:58.397Z,0.88
2023-02-09T11:37:58.357Z,0.81
2023-02-09T11:38:58.370Z,1.13
2023-02-09T11:39:58.336Z,1.29
2023-02-09T11:40:58.334Z,1.56
2023-02-09T11:41:58.320Z,1.35
2023-02-09T11:42:58.306Z,0.93
2023-02-09T11:43:58.304Z,0.77
2023-02-09T11:44:58.293Z,0.71
2023-02-09T11:45:58.338Z,0.74
2023-02-09T11:46:58.268Z,1.31
2023-02-09T11:47:58.323Z,1.21
2023-02-09T11:48:58.256Z,0.89
2023-02-09T11:49:58.338Z,0.64
2023-02-09T11:50:58.224Z,0.80
2023-02-09T11:51:58.227Z,0.75
2023-02-09T11:52:58.198Z,0.92
2023-02-09T11:53:58.197Z,0.96
2023-02-09T11:54:58.178Z,0.82
2023-02-09T11:55:58.168Z,1.04
2023-02-09T11:56:58.157Z,1.14
2023-02-09T11:57:58.142Z,1.53
2023-02-09T11:58:58.252Z,1.26
2023-02-09T11:59:58.124Z,1.16
2023-02-09T12:01:13.388Z,1.43
2023-02-09T12:01:59.093Z,1.67
2023-02-09T12:02:58.147Z,2.22
2023-02-09T12:03:58.077Z,2.11
2023-02-09T12:04:58.075Z,2.26
2023-02-09T12:05:58.054Z,1.83
2023-02-09T12:06:58.087Z,1.46
2023-02-09T12:07:58.061Z,2.05
2023-02-09T12:08:58.029Z,1.95
2023-02-09T12:09:58.007Z,2.20
2023-02-09T12:10:58.000Z,2.27
2023-02-09T12:11:57.983Z,2.30
2023-02-09T12:12:57.982Z,2.66
2023-02-09T12:13:57.985Z,2.56
2023-02-09T12:14:57.954Z,2.12
2023-02-09T12:15:57.986Z,1.49
2023-02-09T12:16:57.933Z,1.52
2023-02-09T12:17:57.932Z,1.61
2023-02-09T12:18:57.913Z,1.52
2023-02-09T12:19:57.920Z,1.57
2023-02-09T12:20:57.895Z,1.92
2023-02-09T12:21:57.874Z,2.15
2023-02-09T12:22:57.877Z,2.65
2023-02-09T12:23:57.885Z,2.53
2023-02-09T12:24:57.854Z,2.32
2023-02-09T12:25:57.852Z,2.29
2023-02-09T12:26:57.829Z,2.25
2023-02-09T12:27:57.842Z,2.27
2023-02-09T12:28:57.815Z,2.62
2023-02-09T12:29:57.784Z,2.53
2023-02-09T12:30:57.844Z,2.27
2023-02-09T12:31:57.847Z,2.29
2023-02-09T12:32:57.755Z,2.37
2023-02-09T12:33:57.757Z,2.25
2023-02-09T12:34:57.739Z,2.11
2023-02-09T12:35:57.720Z,2.00
2023-02-09T12:36:57.720Z,2.29
2023-02-09T12:37:57.699Z,1.95
2023-02-09T12:39:04.673Z,2.00
2023-02-09T12:39:59.900Z,2.01
2023-02-09T12:40:57.664Z,2.40
2023-02-09T12:41:57.656Z,2.29
2023-02-09T12:42:57.654Z,2.15
2023-02-09T12:43:57.640Z,2.01
2023-02-09T12:44:57.623Z,2.01
2023-02-09T12:45:57.692Z,1.93
2023-02-09T12:46:57.617Z,1.95
2023-02-09T12:47:57.588Z,2.19
2023-02-09T12:48:57.574Z,2.26
2023-02-09T12:49:57.591Z,2.14
2023-02-09T12:50:57.567Z,2.01
2023-02-09T12:51:57.539Z,1.64
2023-02-09T12:52:57.540Z,1.53
2023-02-09T12:53:57.530Z,1.85
2023-02-09T12:54:57.581Z,1.85
2023-02-09T12:55:57.515Z,1.81
2023-02-09T12:56:57.490Z,1.75
2023-02-09T12:57:57.474Z,1.46